createdAt,value
2022-12-25T00:02:04.353Z,5.23
2022-12-25T00:04:32.297Z,6.60
2022-12-25T00:07:00.485Z,5.90
2022-12-25T00:09:29.042Z,6.07
2022-12-25T00:11:57.112Z,5.70
2022-12-25T00:14:25.043Z,6.37
2022-12-25T00:16:53.119Z,5.47
2022-12-25T00:19:22.559Z,6.23
2022-12-25T00:21:50.501Z,5.40
2022-12-25T00:24:18.827Z,5.83
2022-12-25T00:26:46.855Z,5.50
2022-12-25T00:29:14.923Z,5.27
2022-12-25T00:31:43.121Z,5.57
2022-12-25T00:34:11.188Z,5.27
2022-12-25T00:36:42.197Z,5.33
2022-12-25T00:39:10.571Z,5.37
2022-12-25T00:41:56.083Z,6.03
2022-12-25T00:44:23.959Z,6.03
2022-12-25T00:46:52.196Z,5.30
2022-12-25T00:49:23.024Z,6.23
2022-12-25T00:51:52.768Z,5.50
2022-12-25T00:54:21.165Z,5.53
2022-12-25T00:56:49.071Z,5.33
2022-12-25T00:59:17.157Z,5.17
2022-12-25T01:01:45.500Z,4.97
2022-12-25T01:04:13.934Z,5.17
2022-12-25T01:06:42.205Z,5.00
2022-12-25T01:09:29.095Z,4.90
2022-12-25T01:11:57.165Z,4.90
2022-12-25T01:14:25.123Z,4.87
2022-12-25T01:16:53.197Z,4.80
2022-12-25T01:19:21.156Z,4.00
2022-12-25T01:21:49.196Z,4.63
2022-12-25T01:24:18.896Z,4.43
2022-12-25T01:26:46.818Z,4.00
2022-12-25T01:29:14.726Z,4.60
2022-12-25T01:31:42.805Z,4.33
2022-12-25T01:34:10.767Z,4.07
2022-12-25T01:36:38.751Z,4.57
2022-12-25T01:39:06.927Z,4.20
2022-12-25T01:41:36.401Z,3.80
2022-12-25T01:44:07.740Z,4.53
2022-12-25T01:46:37.249Z,3.97
2022-12-25T01:49:09.110Z,4.00
2022-12-25T01:51:41.307Z,3.30
2022-12-25T01:54:13.688Z,3.63
2022-12-25T01:56:44.848Z,4.00
2022-12-25T01:59:15.291Z,3.43
2022-12-25T02:01:43.511Z,3.43
2022-12-25T02:04:21.377Z,3.83
2022-12-25T02:06:51.024Z,3.70
2022-12-25T02:09:19.739Z,3.60
2022-12-25T02:11:58.231Z,3.60
2022-12-25T02:14:27.706Z,3.00
2022-12-25T02:17:04.011Z,2.97
2022-12-25T02:19:51.519Z,3.20
2022-12-25T02:22:31.196Z,3.40
2022-12-25T02:25:14.451Z,3.30
2022-12-25T02:27:58.517Z,3.43
2022-12-25T02:30:27.814Z,2.93
2022-12-25T02:33:15.592Z,3.43
2022-12-25T02:35:47.248Z,2.70
2022-12-25T02:38:19.500Z,3.17
2022-12-25T02:40:51.729Z,3.20
2022-12-25T02:43:43.749Z,2.73
2022-12-25T02:46:33.128Z,3.10
2022-12-25T02:49:23.818Z,2.90
2022-12-25T02:52:22.991Z,3.30
2022-12-25T02:55:19.207Z,2.60
2022-12-25T02:58:09.371Z,2.90
2022-12-25T03:00:59.854Z,2.87
2022-12-25T03:03:49.743Z,3.33
2022-12-25T03:06:37.616Z,3.00
2022-12-25T03:09:22.466Z,2.83
2022-12-25T03:12:03.077Z,3.17
2022-12-25T03:14:48.432Z,2.60
2022-12-25T03:17:18.026Z,3.07
2022-12-25T03:20:03.838Z,2.93
2022-12-25T03:22:50.912Z,2.97
2022-12-25T03:25:37.612Z,3.10
2022-12-25T03:28:07.098Z,3.07
2022-12-25T03:31:00.160Z,2.97
2022-12-25T03:33:44.976Z,3.50
2022-12-25T03:36:21.016Z,2.67
2022-12-25T03:39:17.555Z,3.00
2022-12-25T03:42:06.596Z,2.80
2022-12-25T03:44:59.893Z,2.60
2022-12-25T03:47:51.305Z,3.07
2022-12-25T03:50:44.781Z,2.97
2022-12-25T03:53:35.142Z,2.90
2022-12-25T03:56:22.483Z,3.20
2022-12-25T03:59:10.277Z,2.87
2022-12-25T04:01:55.641Z,3.00
2022-12-25T04:04:41.153Z,2.60
2022-12-25T04:07:28.188Z,2.60
2022-12-25T04:10:14.144Z,3.17
2022-12-25T04:12:59.808Z,2.70
2022-12-25T04:15:45.104Z,3.00
2022-12-25T04:18:30.386Z,2.63
2022-12-25T04:21:15.662Z,2.77
2022-12-25T04:24:02.602Z,2.73
2022-12-25T04:26:47.919Z,2.83
2022-12-25T04:29:33.763Z,2.90
2022-12-25T04:32:19.038Z,3.13
2022-12-25T04:35:04.317Z,3.07
2022-12-25T04:37:32.226Z,2.90
2022-12-25T04:40:01.622Z,2.90
2022-12-25T04:42:29.445Z,3.20
2022-12-25T04:44:57.307Z,2.83
2022-12-25T04:47:25.270Z,2.60
2022-12-25T04:49:53.115Z,2.30
2022-12-25T04:52:21.118Z,2.70
2022-12-25T04:54:48.933Z,2.37
2022-12-25T04:57:18.651Z,2.30
2022-12-25T04:59:46.636Z,2.33
2022-12-25T05:02:14.699Z,2.23
2022-12-25T05:04:42.648Z,2.33
2022-12-25T05:07:10.694Z,2.70
2022-12-25T05:09:41.781Z,2.47
2022-12-25T05:12:10.274Z,2.50
2022-12-25T05:14:40.123Z,2.20
2022-12-25T05:17:09.037Z,2.50
2022-12-25T05:19:36.867Z,2.23
2022-12-25T05:22:04.867Z,2.40
2022-12-25T05:24:32.827Z,2.43
2022-12-25T05:27:00.845Z,2.23
2022-12-25T05:29:28.912Z,2.20
2022-12-25T05:31:58.308Z,2.13
2022-12-25T05:34:26.403Z,2.37
2022-12-25T05:36:54.381Z,2.27
2022-12-25T05:39:22.329Z,2.43
2022-12-25T05:41:50.537Z,2.50
2022-12-25T05:44:18.407Z,2.30
2022-12-25T05:46:46.481Z,2.00
2022-12-25T05:49:16.532Z,2.47
2022-12-25T05:51:44.500Z,2.37
2022-12-25T05:54:12.332Z,2.27
2022-12-25T05:56:40.388Z,2.40
2022-12-25T05:59:08.400Z,2.30
2022-12-25T06:01:36.521Z,2.33
2022-12-25T06:04:10.210Z,2.40
2022-12-25T06:06:42.164Z,2.23
2022-12-25T06:09:10.859Z,1.90
2022-12-25T06:11:38.990Z,1.80
2022-12-25T06:14:07.196Z,2.23
2022-12-25T06:16:38.282Z,2.07
2022-12-25T06:19:07.273Z,2.13
2022-12-25T06:21:35.478Z,2.20
2022-12-25T06:24:05.231Z,1.97
2022-12-25T06:26:33.330Z,2.10
2022-12-25T06:29:01.501Z,1.87
2022-12-25T06:31:29.852Z,2.10
2022-12-25T06:33:58.171Z,2.20
2022-12-25T06:36:29.240Z,2.27
2022-12-25T06:38:58.035Z,1.90
2022-12-25T06:41:30.246Z,2.07
2022-12-25T06:44:00.229Z,2.17
2022-12-25T06:46:29.963Z,2.07
2022-12-25T06:49:00.365Z,2.17
2022-12-25T06:51:30.577Z,2.37
2022-12-25T06:53:59.339Z,2.20
2022-12-25T06:56:29.494Z,2.13
2022-12-25T06:58:59.391Z,2.10
2022-12-25T07:01:30.592Z,2.03
2022-12-25T07:03:59.983Z,2.17
2022-12-25T07:06:27.889Z,2.50
2022-12-25T07:08:55.919Z,2.00
2022-12-25T07:11:24.634Z,1.90
2022-12-25T07:13:54.110Z,2.00
2022-12-25T07:16:22.250Z,2.10
2022-12-25T07:18:50.534Z,1.97
2022-12-25T07:21:20.470Z,1.80
2022-12-25T07:23:50.898Z,2.00
2022-12-25T07:26:18.950Z,2.20
2022-12-25T07:28:46.906Z,1.83
2022-12-25T07:31:17.687Z,2.07
2022-12-25T07:33:46.103Z,2.00
2022-12-25T07:36:14.746Z,1.80
2022-12-25T07:38:42.911Z,1.63
2022-12-25T07:41:12.905Z,1.57
2022-12-25T07:43:41.567Z,1.60
2022-12-25T07:46:09.955Z,1.87
2022-12-25T07:48:39.402Z,1.60
2022-12-25T07:51:11.368Z,1.70
2022-12-25T07:53:40.270Z,1.60
2022-12-25T07:56:09.863Z,1.50
2022-12-25T07:58:38.008Z,1.83
2022-12-25T08:01:08.843Z,1.40
2022-12-25T08:03:37.417Z,1.80
2022-12-25T08:06:09.311Z,1.57
2022-12-25T08:08:38.625Z,2.23
2022-12-25T08:11:08.076Z,1.70
2022-12-25T08:13:36.822Z,2.03
2022-12-25T08:16:07.997Z,1.60
2022-12-25T08:18:37.566Z,1.63
2022-12-25T08:21:09.126Z,2.00
2022-12-25T08:23:38.898Z,1.80
2022-12-25T08:26:08.486Z,1.63
2022-12-25T08:28:37.390Z,1.57
2022-12-25T08:31:10.793Z,1.93
2022-12-25T08:33:39.414Z,1.83
2022-12-25T08:36:11.164Z,1.80
2022-12-25T08:38:40.157Z,2.00
2022-12-25T08:41:08.083Z,1.80
2022-12-25T08:43:36.439Z,1.80
2022-12-25T08:46:04.825Z,2.13
2022-12-25T08:48:32.918Z,2.10
2022-12-25T08:51:01.224Z,2.23
2022-12-25T08:53:30.904Z,1.90
2022-12-25T08:56:00.172Z,2.70
2022-12-25T08:58:28.420Z,1.93
2022-12-25T09:00:56.809Z,2.20
2022-12-25T09:03:25.601Z,2.20
2022-12-25T09:05:54.624Z,2.47
2022-12-25T09:08:23.165Z,2.20
2022-12-25T09:10:52.508Z,2.23
2022-12-25T09:13:20.515Z,2.30
2022-12-25T09:15:48.357Z,2.60
2022-12-25T09:18:16.322Z,2.40
2022-12-25T09:20:44.181Z,2.80
2022-12-25T09:23:14.414Z,2.83
2022-12-25T09:25:42.683Z,2.67
2022-12-25T09:28:12.048Z,2.97
2022-12-25T09:30:39.911Z,2.97
2022-12-25T09:33:08.628Z,2.70
2022-12-25T09:35:36.756Z,2.77
2022-12-25T09:38:04.706Z,3.00
2022-12-25T09:40:33.561Z,2.77
2022-12-25T09:43:03.146Z,2.90
2022-12-25T09:45:36.887Z,2.90
2022-12-25T09:48:05.746Z,2.77
2022-12-25T09:50:41.936Z,3.20
2022-12-25T09:53:13.949Z,3.20
2022-12-25T09:55:47.302Z,2.97
2022-12-25T09:58:15.233Z,5.70
2022-12-25T10:00:52.336Z,9.97
2022-12-25T10:03:44.787Z,14.30
2022-12-25T10:06:18.117Z,15.67
2022-12-25T10:09:11.632Z,7.87
2022-12-25T10:12:02.357Z,5.93
2022-12-25T10:14:39.471Z,4.77
2022-12-25T10:17:25.207Z,4.13
2022-12-25T10:20:03.634Z,3.97
2022-12-25T10:22:35.616Z,3.90
2022-12-25T10:25:07.035Z,4.00
2022-12-25T10:27:38.258Z,3.70
2022-12-25T10:30:14.858Z,3.73
2022-12-25T10:32:45.619Z,4.30
2022-12-25T10:35:14.101Z,4.03
2022-12-25T10:37:42.706Z,3.40
2022-12-25T10:40:28.944Z,3.40
2022-12-25T10:43:02.582Z,3.60
2022-12-25T10:45:30.478Z,4.47
2022-12-25T10:48:08.005Z,4.00
2022-12-25T10:50:44.028Z,3.47
2022-12-25T10:53:19.801Z,3.40
2022-12-25T10:55:59.431Z,3.40
2022-12-25T10:58:27.942Z,3.93
2022-12-25T11:00:59.310Z,3.70
2022-12-25T11:03:32.296Z,4.10
2022-12-25T11:06:01.110Z,4.10
2022-12-25T11:08:31.036Z,3.50
2022-12-25T11:11:06.211Z,3.70
2022-12-25T11:13:37.601Z,4.20
2022-12-25T11:16:09.421Z,3.90
2022-12-25T11:18:47.915Z,3.70
2022-12-25T11:21:18.552Z,4.23
2022-12-25T11:23:48.976Z,3.90
2022-12-25T11:26:18.114Z,4.00
2022-12-25T11:29:02.099Z,4.00
2022-12-25T11:31:38.768Z,4.17
2022-12-25T11:34:11.599Z,3.73
2022-12-25T11:36:45.820Z,3.67
2022-12-25T11:39:22.985Z,3.63
2022-12-25T11:41:54.988Z,3.47
2022-12-25T11:44:42.313Z,3.83
2022-12-25T11:47:18.585Z,3.77
2022-12-25T11:49:56.082Z,3.60
2022-12-25T11:52:30.763Z,3.23
2022-12-25T11:55:03.818Z,3.33
2022-12-25T11:57:34.300Z,3.27
2022-12-25T12:00:09.543Z,3.33
2022-12-25T12:02:44.268Z,3.40
2022-12-25T12:05:21.381Z,3.90
2022-12-25T12:07:59.912Z,3.50
2022-12-25T12:10:43.475Z,3.93
2022-12-25T12:13:27.790Z,3.87
2022-12-25T12:15:58.477Z,4.60
2022-12-25T12:18:32.518Z,3.70
2022-12-25T12:21:06.800Z,4.53
2022-12-25T12:23:38.359Z,3.63
2022-12-25T12:26:06.673Z,3.90
2022-12-25T12:28:45.480Z,4.17
2022-12-25T12:31:15.537Z,3.90
2022-12-25T12:33:51.778Z,3.83
2022-12-25T12:36:34.631Z,4.20
2022-12-25T12:39:03.597Z,4.00
2022-12-25T12:41:46.360Z,3.90
2022-12-25T12:44:17.119Z,4.33
2022-12-25T12:46:54.814Z,4.40
2022-12-25T12:49:24.568Z,4.80
2022-12-25T12:52:05.414Z,3.77
2022-12-25T12:54:33.581Z,4.63
2022-12-25T12:57:06.519Z,4.70
2022-12-25T12:59:40.901Z,4.40
2022-12-25T13:02:33.631Z,4.20
2022-12-25T13:05:05.138Z,4.23
2022-12-25T13:07:46.129Z,4.57
2022-12-25T13:10:24.738Z,4.37
2022-12-25T13:12:56.219Z,4.80
2022-12-25T13:15:28.289Z,4.67
2022-12-25T13:18:02.623Z,4.20
2022-12-25T13:20:40.087Z,4.17
2022-12-25T13:23:15.815Z,4.10
2022-12-25T13:25:43.684Z,3.70
2022-12-25T13:28:15.972Z,3.80
2022-12-25T13:30:44.269Z,3.63
2022-12-25T13:33:20.435Z,4.40
2022-12-25T13:35:48.735Z,4.00
2022-12-25T13:38:17.893Z,4.00
2022-12-25T13:41:12.215Z,4.17
2022-12-25T13:43:41.098Z,4.77
2022-12-25T13:46:09.272Z,4.10
2022-12-25T13:48:39.016Z,3.73
2022-12-25T13:51:16.342Z,3.70
2022-12-25T13:53:44.641Z,3.80
2022-12-25T13:56:15.603Z,3.83
2022-12-25T13:58:44.849Z,3.80
2022-12-25T14:01:17.091Z,3.97
2022-12-25T14:03:48.484Z,4.23
2022-12-25T14:06:20.348Z,4.30
2022-12-25T14:08:49.651Z,4.73
2022-12-25T14:11:21.739Z,4.57
2022-12-25T14:13:53.004Z,5.00
2022-12-25T14:16:22.567Z,5.20
2022-12-25T14:18:57.418Z,5.37
2022-12-25T14:21:33.115Z,5.37
2022-12-25T14:24:01.466Z,6.20
2022-12-25T14:26:31.748Z,5.93
2022-12-25T14:29:16.500Z,5.60
2022-12-25T14:31:46.650Z,6.00
2022-12-25T14:34:19.761Z,6.30
2022-12-25T14:36:48.613Z,6.07
2022-12-25T14:39:38.837Z,5.47
2022-12-25T14:42:18.980Z,5.20
2022-12-25T14:44:57.771Z,5.30
2022-12-25T14:47:25.747Z,5.60
2022-12-25T14:49:55.347Z,6.27
2022-12-25T14:52:27.385Z,6.73
2022-12-25T14:55:00.706Z,6.37
2022-12-25T14:57:32.771Z,6.27
2022-12-25T15:00:09.185Z,5.97
2022-12-25T15:02:43.995Z,6.33
2022-12-25T15:05:29.285Z,7.00
2022-12-25T15:08:20.746Z,26.57
2022-12-25T15:11:05.102Z,13.83
2022-12-25T15:13:34.192Z,11.97
2022-12-25T15:16:07.329Z,7.53
2022-12-25T15:18:39.345Z,7.20
2022-12-25T15:21:16.370Z,6.20
2022-12-25T15:23:44.517Z,7.33
2022-12-25T15:26:14.716Z,6.97
2022-12-25T15:28:42.917Z,6.30
2022-12-25T15:31:20.900Z,6.83
2022-12-25T15:33:48.931Z,6.87
2022-12-25T15:36:18.318Z,7.17
2022-12-25T15:38:46.387Z,7.37
2022-12-25T15:41:36.846Z,6.90
2022-12-25T15:44:06.260Z,6.13
2022-12-25T15:46:35.019Z,6.57
2022-12-25T15:49:03.019Z,6.60
2022-12-25T15:51:32.787Z,6.80
2022-12-25T15:54:00.869Z,7.60
2022-12-25T15:56:29.749Z,7.17
2022-12-25T15:58:57.856Z,7.40
2022-12-25T16:01:25.904Z,8.00
2022-12-25T16:03:54.092Z,7.80
2022-12-25T16:06:22.015Z,7.87
2022-12-25T16:08:51.382Z,8.13
2022-12-25T16:11:19.375Z,7.30
2022-12-25T16:13:47.189Z,7.47
2022-12-25T16:16:15.149Z,7.07
2022-12-25T16:18:47.354Z,7.27
2022-12-25T16:21:18.596Z,7.30
2022-12-25T16:23:47.068Z,6.67
2022-12-25T16:26:16.735Z,7.20
2022-12-25T16:28:45.191Z,6.87
2022-12-25T16:31:13.322Z,7.10
2022-12-25T16:33:41.316Z,7.27
2022-12-25T16:36:10.101Z,7.97
2022-12-25T16:38:38.385Z,7.03
2022-12-25T16:41:06.635Z,8.17
2022-12-25T16:43:36.453Z,8.40
2022-12-25T16:46:10.618Z,7.70
2022-12-25T16:48:38.820Z,8.17
2022-12-25T16:51:10.300Z,8.10
2022-12-25T16:53:38.327Z,8.47
2022-12-25T16:56:07.419Z,8.20
2022-12-25T16:58:37.254Z,7.60
2022-12-25T17:01:06.939Z,8.53
2022-12-25T17:03:35.044Z,8.33
2022-12-25T17:06:03.315Z,8.33
2022-12-25T17:08:31.854Z,7.63
2022-12-25T17:10:59.770Z,8.17
2022-12-25T17:13:27.785Z,8.10
2022-12-25T17:15:57.277Z,9.13
2022-12-25T17:18:25.351Z,9.90
2022-12-25T17:20:54.717Z,8.33
2022-12-25T17:23:25.121Z,8.20
2022-12-25T17:25:53.134Z,8.27
2022-12-25T17:28:21.050Z,8.07
2022-12-25T17:30:48.899Z,8.10
2022-12-25T17:33:18.417Z,8.60
2022-12-25T17:35:46.356Z,8.53
2022-12-25T17:38:14.360Z,8.23
2022-12-25T17:40:42.539Z,8.57
2022-12-25T17:43:14.244Z,8.40
2022-12-25T17:45:45.048Z,8.47
2022-12-25T17:48:13.013Z,8.73
2022-12-25T17:50:42.474Z,7.93
2022-12-25T17:53:10.913Z,6.90
2022-12-25T17:55:40.483Z,7.53
2022-12-25T17:58:08.936Z,7.07
2022-12-25T18:00:37.439Z,7.77
2022-12-25T18:03:11.434Z,6.93
2022-12-25T18:05:40.096Z,7.97
2022-12-25T18:08:09.717Z,8.20
2022-12-25T18:10:38.354Z,8.10
2022-12-25T18:13:06.784Z,8.53
2022-12-25T18:15:38.146Z,7.57
2022-12-25T18:18:06.572Z,8.47
2022-12-25T18:20:39.933Z,7.50
2022-12-25T18:23:10.048Z,7.40
2022-12-25T18:25:41.589Z,7.27
2022-12-25T18:28:10.785Z,6.87
2022-12-25T18:30:41.181Z,6.03
2022-12-25T18:33:10.074Z,6.00
2022-12-25T18:35:40.598Z,5.80
2022-12-25T18:38:10.700Z,6.07
2022-12-25T18:40:41.527Z,5.13
2022-12-25T18:43:09.843Z,5.93
2022-12-25T18:45:38.280Z,5.47
2022-12-25T18:48:07.403Z,5.70
2022-12-25T18:50:36.760Z,5.87
2022-12-25T18:53:05.597Z,6.23
2022-12-25T18:56:05.982Z,6.63
2022-12-25T18:58:43.127Z,6.70
2022-12-25T19:01:14.007Z,6.07
2022-12-25T19:03:42.331Z,16.10
2022-12-25T19:06:10.622Z,7.80
2022-12-25T19:08:38.695Z,7.73
2022-12-25T19:11:11.076Z,7.27
2022-12-25T19:13:39.016Z,6.87
2022-12-25T19:16:07.648Z,6.80
2022-12-25T19:18:35.605Z,7.13
2022-12-25T19:21:03.932Z,5.57
2022-12-25T19:23:32.613Z,6.20
2022-12-25T19:26:00.786Z,6.03
2022-12-25T19:28:30.196Z,11.40
2022-12-25T19:31:00.980Z,6.47
2022-12-25T19:33:29.321Z,6.13
2022-12-25T19:36:00.825Z,7.73
2022-12-25T19:38:29.990Z,6.50
2022-12-25T19:41:04.136Z,7.17
2022-12-25T19:43:35.389Z,5.87
2022-12-25T19:46:04.379Z,6.40
2022-12-25T19:48:33.421Z,6.37
2022-12-25T19:51:01.702Z,6.40
2022-12-25T19:53:30.847Z,6.53
2022-12-25T19:56:03.371Z,7.30
2022-12-25T19:58:31.295Z,7.80
2022-12-25T20:01:02.858Z,9.40
2022-12-25T20:03:30.933Z,8.07
2022-12-25T20:05:58.902Z,6.60
2022-12-25T20:08:26.841Z,8.30
2022-12-25T20:10:54.903Z,8.97
2022-12-25T20:13:23.240Z,7.33
2022-12-25T20:15:51.912Z,7.80
2022-12-25T20:18:21.291Z,7.67
2022-12-25T20:20:49.300Z,7.97
2022-12-25T20:23:17.180Z,8.47
2022-12-25T20:25:45.100Z,10.47
2022-12-25T20:28:13.429Z,9.57
2022-12-25T20:30:41.542Z,9.60
2022-12-25T20:33:10.128Z,8.47
2022-12-25T20:35:39.581Z,8.30
2022-12-25T20:38:10.656Z,8.60
2022-12-25T20:41:08.025Z,7.40
2022-12-25T20:43:27.443Z,6.87
2022-12-25T20:45:55.435Z,6.93
2022-12-25T20:48:23.626Z,6.47
2022-12-25T20:50:53.559Z,6.90
2022-12-25T20:53:22.205Z,7.00
2022-12-25T20:55:51.392Z,6.20
2022-12-25T20:58:19.254Z,5.87
2022-12-25T21:00:47.261Z,6.57
2022-12-25T21:03:15.336Z,6.27
2022-12-25T21:05:50.746Z,6.83
2022-12-25T21:08:21.268Z,6.27
2022-12-25T21:10:52.450Z,5.90
2022-12-25T21:13:21.705Z,5.73
2022-12-25T21:15:50.767Z,8.10
2022-12-25T21:18:22.901Z,7.03
2022-12-25T21:20:52.657Z,6.13
2022-12-25T21:23:22.707Z,6.10
2022-12-25T21:25:51.042Z,5.87
2022-12-25T21:28:19.331Z,6.03
2022-12-25T21:30:47.285Z,5.43
2022-12-25T21:33:33.357Z,6.00
2022-12-25T21:36:06.882Z,6.53
2022-12-25T21:38:36.558Z,6.13
2022-12-25T21:41:05.831Z,6.33
2022-12-25T21:43:34.329Z,7.23
2022-12-25T21:46:04.287Z,6.70
2022-12-25T21:48:32.991Z,6.80
2022-12-25T21:51:20.952Z,6.93
2022-12-25T21:53:50.583Z,6.73
2022-12-25T21:56:18.919Z,6.30
2022-12-25T21:58:48.603Z,6.50
2022-12-25T22:01:17.555Z,6.03
2022-12-25T22:03:46.169Z,7.23
2022-12-25T22:06:32.095Z,6.73
2022-12-25T22:09:01.592Z,6.43
2022-12-25T22:11:47.344Z,6.83
2022-12-25T22:14:52.585Z,6.93
2022-12-25T22:17:37.177Z,7.37
2022-12-25T22:20:07.521Z,6.97
2022-12-25T22:22:35.957Z,6.80
2022-12-25T22:25:09.008Z,7.63
2022-12-25T22:27:38.825Z,6.67
2022-12-25T22:30:08.772Z,6.67
2022-12-25T22:32:37.142Z,5.60
2022-12-25T22:35:05.851Z,6.03
2022-12-25T22:37:33.939Z,5.70
2022-12-25T22:40:02.960Z,5.10
2022-12-25T22:42:32.373Z,5.77
2022-12-25T22:45:00.342Z,5.10
2022-12-25T22:47:28.518Z,4.50
2022-12-25T22:49:56.420Z,4.40
2022-12-25T22:52:24.887Z,4.30
2022-12-25T22:54:52.760Z,3.80
2022-12-25T22:57:20.865Z,4.50
2022-12-25T22:59:52.706Z,3.30
2022-12-25T23:02:21.294Z,3.77
2022-12-25T23:04:49.454Z,3.20
2022-12-25T23:07:17.555Z,3.00
2022-12-25T23:09:46.082Z,3.27
2022-12-25T23:12:28.084Z,2.83
2022-12-25T23:14:57.931Z,2.40
2022-12-25T23:17:39.702Z,2.60
2022-12-25T23:20:26.604Z,2.80
2022-12-25T23:23:11.930Z,2.80
2022-12-25T23:25:57.213Z,2.47
2022-12-25T23:28:39.020Z,2.17
2022-12-25T23:31:09.402Z,2.20
2022-12-25T23:33:37.449Z,2.60
2022-12-25T23:36:07.117Z,2.57
2022-12-25T23:38:35.100Z,2.50
2022-12-25T23:41:03.242Z,2.10
2022-12-25T23:43:31.596Z,2.80
2022-12-25T23:45:59.518Z,2.40
2022-12-25T23:48:28.988Z,2.93
2022-12-25T23:50:57.203Z,3.07
2022-12-25T23:53:25.136Z,2.50
2022-12-25T23:55:55.886Z,2.50
2022-12-25T23:58:24.027Z,2.93
